Terminal Aerodrome Forecast
Issued by NWS

Home | Current Version | Previous Version | Text Only | Print | Product List | Glossary On
Versions: 1 2 3 4 5 6 7 8 9 10 11 12 13 14 15 16 17 18 19
919
FTUS43 KTOP 161144 AAA
TAFMHK
TAF AMD
KMHK 161144Z 1612/1712 30005KT P6SM BKN025
     FM161800 33007KT P6SM SCT030=

USA.gov is the U.S. government's official web portal to all federal, state and local government web resources and services.